sensor_id;sensor_type;location;lat;lon;timestamp;pressure;altitude;pressure_sealevel;temperature;humidity
30935;BME280;51033;42.648;23.292;2023-08-08T00:01:40;93759.56;;;18.22;60.14
30935;BME280;51033;42.648;23.292;2023-08-08T00:04:08;93762.94;;;18.19;58.76
30935;BME280;51033;42.648;23.292;2023-08-08T00:06:34;93768.84;;;18.01;58.94
30935;BME280;51033;42.648;23.292;2023-08-08T00:09:00;93749.41;;;17.66;58.29
30935;BME280;51033;42.648;23.292;2023-08-08T00:11:25;93770.03;;;17.58;57.05
30935;BME280;51033;42.648;23.292;2023-08-08T00:13:50;93759.22;;;17.55;56.15
30935;BME280;51033;42.648;23.292;2023-08-08T00:16:16;93724.53;;;17.08;56.72
30935;BME280;51033;42.648;23.292;2023-08-08T00:18:41;93760.22;;;17.08;56.22
30935;BME280;51033;42.648;23.292;2023-08-08T00:21:06;93777.34;;;17.00;56.73
30935;BME280;51033;42.648;23.292;2023-08-08T00:23:32;93750.34;;;16.74;57.03
30935;BME280;51033;42.648;23.292;2023-08-08T00:25:57;93778.47;;;16.61;57.52
30935;BME280;51033;42.648;23.292;2023-08-08T00:28:23;93775.19;;;16.52;58.16
30935;BME280;51033;42.648;23.292;2023-08-08T00:30:48;93759.78;;;16.49;57.67
30935;BME280;51033;42.648;23.292;2023-08-08T00:33:14;93743.38;;;16.35;56.94
30935;BME280;51033;42.648;23.292;2023-08-08T00:35:39;93774.81;;;16.53;56.24
30935;BME280;51033;42.648;23.292;2023-08-08T00:38:04;93769.94;;;16.24;56.72
30935;BME280;51033;42.648;23.292;2023-08-08T00:40:30;93767.19;;;16.20;56.96
30935;BME280;51033;42.648;23.292;2023-08-08T00:42:56;93766.09;;;15.90;57.04
30935;BME280;51033;42.648;23.292;2023-08-08T00:45:21;93778.69;;;16.21;56.96
30935;BME280;51033;42.648;23.292;2023-08-08T00:47:46;93790.22;;;16.21;56.99
30935;BME280;51033;42.648;23.292;2023-08-08T00:50:12;93776.72;;;16.02;57.03
30935;BME280;51033;42.648;23.292;2023-08-08T00:52:40;93763.59;;;15.66;57.15
30935;BME280;51033;42.648;23.292;2023-08-08T00:55:07;93769.53;;;15.75;57.37
30935;BME280;51033;42.648;23.292;2023-08-08T00:57:33;93790.66;;;15.92;57.61
30935;BME280;51033;42.648;23.292;2023-08-08T01:00:00;93774.31;;;15.81;56.98
30935;BME280;51033;42.648;23.292;2023-08-08T01:02:26;93759.19;;;15.58;57.21
30935;BME280;51033;42.648;23.292;2023-08-08T01:04:51;93774.22;;;15.78;57.49
30935;BME280;51033;42.648;23.292;2023-08-08T01:07:25;93791.69;;;15.72;57.90
30935;BME280;51033;42.648;23.292;2023-08-08T01:09:59;93773.09;;;15.48;58.76
30935;BME280;51033;42.648;23.292;2023-08-08T01:12:34;93798.06;;;15.52;59.13
30935;BME280;51033;42.648;23.292;2023-08-08T01:15:03;93800.59;;;15.32;59.52
30935;BME280;51033;42.648;23.292;2023-08-08T01:17:31;93798.25;;;15.15;59.91
30935;BME280;51033;42.648;23.292;2023-08-08T01:19:56;93783.25;;;14.86;60.81
30935;BME280;51033;42.648;23.292;2023-08-08T01:22:30;93811.59;;;14.87;61.27
30935;BME280;51033;42.648;23.292;2023-08-08T01:24:59;93798.03;;;14.68;61.69
30935;BME280;51033;42.648;23.292;2023-08-08T01:27:24;93807.63;;;14.81;61.57
30935;BME280;51033;42.648;23.292;2023-08-08T01:29:50;93817.19;;;14.94;61.70
30935;BME280;51033;42.648;23.292;2023-08-08T01:32:15;93814.91;;;14.96;60.67
30935;BME280;51033;42.648;23.292;2023-08-08T01:34:41;93798.34;;;14.91;60.80
30935;BME280;51033;42.648;23.292;2023-08-08T01:37:13;93805.94;;;14.77;60.73
30935;BME280;51033;42.648;23.292;2023-08-08T01:39:43;93827.25;;;14.85;60.33
30935;BME280;51033;42.648;23.292;2023-08-08T01:42:10;93811.97;;;14.74;60.60
30935;BME280;51033;42.648;23.292;2023-08-08T01:44:36;93837.53;;;14.71;61.09
30935;BME280;51033;42.648;23.292;2023-08-08T01:47:06;93847.38;;;14.55;61.95
30935;BME280;51033;42.648;23.292;2023-08-08T01:49:32;93834.09;;;14.46;61.96
30935;BME280;51033;42.648;23.292;2023-08-08T01:51:57;93835.19;;;14.45;62.00
30935;BME280;51033;42.648;23.292;2023-08-08T01:54:22;93822.19;;;14.32;62.14
30935;BME280;51033;42.648;23.292;2023-08-08T01:56:48;93852.16;;;14.62;61.81
30935;BME280;51033;42.648;23.292;2023-08-08T01:59:13;93870.00;;;14.70;61.79
30935;BME280;51033;42.648;23.292;2023-08-08T02:01:38;93877.13;;;14.53;61.95
30935;BME280;51033;42.648;23.292;2023-08-08T02:04:04;93864.09;;;14.52;61.88
30935;BME280;51033;42.648;23.292;2023-08-08T02:06:30;93858.84;;;14.31;62.78
30935;BME280;51033;42.648;23.292;2023-08-08T02:08:55;93865.75;;;14.44;62.87
30935;BME280;51033;42.648;23.292;2023-08-08T02:11:21;93846.00;;;14.49;62.51
30935;BME280;51033;42.648;23.292;2023-08-08T02:13:47;93856.19;;;14.55;62.39
30935;BME280;51033;42.648;23.292;2023-08-08T02:16:12;93845.03;;;14.41;62.48
30935;BME280;51033;42.648;23.292;2023-08-08T02:18:37;93866.19;;;14.46;63.00
30935;BME280;51033;42.648;23.292;2023-08-08T02:21:06;93864.97;;;14.32;63.04
30935;BME280;51033;42.648;23.292;2023-08-08T02:23:32;93840.91;;;14.19;63.04
30935;BME280;51033;42.648;23.292;2023-08-08T02:25:58;93888.31;;;14.55;63.32
30935;BME280;51033;42.648;23.292;2023-08-08T02:28:23;93895.88;;;14.66;63.14
30935;BME280;51033;42.648;23.292;2023-08-08T02:30:48;93879.38;;;14.64;62.43
30935;BME280;51033;42.648;23.292;2023-08-08T02:33:14;93884.34;;;14.89;61.94
30935;BME280;51033;42.648;23.292;2023-08-08T02:35:39;93878.91;;;14.86;61.35
30935;BME280;51033;42.648;23.292;2023-08-08T02:38:05;93869.31;;;14.85;61.64
30935;BME280;51033;42.648;23.292;2023-08-08T02:40:30;93875.50;;;15.01;61.17
30935;BME280;51033;42.648;23.292;2023-08-08T02:42:56;93875.50;;;15.01;60.76
30935;BME280;51033;42.648;23.292;2023-08-08T02:45:21;93905.63;;;15.10;60.88
30935;BME280;51033;42.648;23.292;2023-08-08T02:47:46;93898.16;;;14.91;60.31
30935;BME280;51033;42.648;23.292;2023-08-08T02:50:12;93896.50;;;14.87;60.89
30935;BME280;51033;42.648;23.292;2023-08-08T02:52:37;93888.47;;;14.87;60.63
30935;BME280;51033;42.648;23.292;2023-08-08T02:55:03;93893.84;;;14.75;60.78
30935;BME280;51033;42.648;23.292;2023-08-08T02:57:28;93919.94;;;14.78;61.06
30935;BME280;51033;42.648;23.292;2023-08-08T02:59:54;93924.19;;;14.79;61.64
30935;BME280;51033;42.648;23.292;2023-08-08T03:02:19;93930.66;;;14.90;61.13
30935;BME280;51033;42.648;23.292;2023-08-08T03:04:44;93918.38;;;14.89;60.96
30935;BME280;51033;42.648;23.292;2023-08-08T03:07:10;93914.03;;;14.84;60.75
30935;BME280;51033;42.648;23.292;2023-08-08T03:09:35;93893.84;;;14.75;60.64
30935;BME280;51033;42.648;23.292;2023-08-08T03:12:01;93918.59;;;14.96;60.46
30935;BME280;51033;42.648;23.292;2023-08-08T03:14:26;93907.44;;;14.94;60.11
30935;BME280;51033;42.648;23.292;2023-08-08T03:16:51;93915.66;;;15.01;60.11
30935;BME280;51033;42.648;23.292;2023-08-08T03:19:17;93924.84;;;14.88;60.44
30935;BME280;51033;42.648;23.292;2023-08-08T03:21:42;93889.84;;;14.69;60.41
30935;BME280;51033;42.648;23.292;2023-08-08T03:24:07;93924.84;;;15.00;60.61
30935;BME280;51033;42.648;23.292;2023-08-08T03:26:33;93926.06;;;15.02;60.55
30935;BME280;51033;42.648;23.292;2023-08-08T03:28:58;93919.72;;;14.83;60.86
30935;BME280;51033;42.648;23.292;2023-08-08T03:31:24;93913.25;;;14.84;60.68
30935;BME280;51033;42.648;23.292;2023-08-08T03:33:51;93912.78;;;14.94;60.45
30935;BME280;51033;42.648;23.292;2023-08-08T03:36:16;93921.19;;;14.68;61.76
30935;BME280;51033;42.648;23.292;2023-08-08T03:38:41;93910.69;;;14.75;61.60
30935;BME280;51033;42.648;23.292;2023-08-08T03:41:11;93916.94;;;14.79;61.35
30935;BME280;51033;42.648;23.292;2023-08-08T03:43:37;93925.97;;;14.75;61.38
30935;BME280;51033;42.648;23.292;2023-08-08T03:46:02;93932.00;;;14.96;61.40
30935;BME280;51033;42.648;23.292;2023-08-08T03:48:28;93932.00;;;14.96;60.03
30935;BME280;51033;42.648;23.292;2023-08-08T03:50:53;93925.38;;;15.06;59.53
30935;BME280;51033;42.648;23.292;2023-08-08T03:53:18;93922.72;;;14.93;59.30
30935;BME280;51033;42.648;23.292;2023-08-08T03:55:44;93918.06;;;14.90;59.25
30935;BME280;51033;42.648;23.292;2023-08-08T03:58:09;93921.16;;;14.92;60.15
30935;BME280;51033;42.648;23.292;2023-08-08T04:00:35;93924.63;;;14.93;59.74
30935;BME280;51033;42.648;23.292;2023-08-08T04:03:00;93924.72;;;14.96;60.12
30935;BME280;51033;42.648;23.292;2023-08-08T04:05:26;93915.69;;;14.89;59.57
30935;BME280;51033;42.648;23.292;2023-08-08T04:07:51;93933.38;;;15.18;59.23
30935;BME280;51033;42.648;23.292;2023-08-08T04:10:16;93924.16;;;15.15;58.46
30935;BME280;51033;42.648;23.292;2023-08-08T04:12:44;93941.19;;;15.23;58.19
30935;BME280;51033;42.648;23.292;2023-08-08T04:15:09;93948.28;;;15.43;57.13
30935;BME280;51033;42.648;23.292;2023-08-08T04:17:35;93946.59;;;15.51;56.92
30935;BME280;51033;42.648;23.292;2023-08-08T04:20:01;93952.88;;;15.55;56.48
30935;BME280;51033;42.648;23.292;2023-08-08T04:22:26;93958.88;;;15.52;56.99
30935;BME280;51033;42.648;23.292;2023-08-08T04:24:51;93960.63;;;15.60;57.01
30935;BME280;51033;42.648;23.292;2023-08-08T04:27:17;93962.03;;;15.54;57.27
30935;BME280;51033;42.648;23.292;2023-08-08T04:29:42;93954.66;;;15.51;57.29
30935;BME280;51033;42.648;23.292;2023-08-08T04:32:08;93949.50;;;15.58;57.31
30935;BME280;51033;42.648;23.292;2023-08-08T04:34:33;93954.63;;;15.63;56.71
30935;BME280;51033;42.648;23.292;2023-08-08T04:36:58;93960.16;;;15.70;56.08
30935;BME280;51033;42.648;23.292;2023-08-08T04:39:24;93969.53;;;15.76;56.28
30935;BME280;51033;42.648;23.292;2023-08-08T04:41:49;93939.88;;;15.57;55.92
30935;BME280;51033;42.648;23.292;2023-08-08T04:44:14;93968.19;;;15.70;56.15
30935;BME280;51033;42.648;23.292;2023-08-08T04:46:41;93961.47;;;15.76;55.92
30935;BME280;51033;42.648;23.292;2023-08-08T04:49:06;93962.03;;;15.81;55.88
30935;BME280;51033;42.648;23.292;2023-08-08T04:51:32;93952.56;;;15.72;55.94
30935;BME280;51033;42.648;23.292;2023-08-08T04:53:57;93941.84;;;15.72;55.57
30935;BME280;51033;42.648;23.292;2023-08-08T04:56:23;93962.56;;;15.87;54.84
30935;BME280;51033;42.648;23.292;2023-08-08T04:58:49;93965.66;;;15.89;54.79
30935;BME280;51033;42.648;23.292;2023-08-08T05:01:14;93961.44;;;15.88;55.20
30935;BME280;51033;42.648;23.292;2023-08-08T05:03:42;93990.34;;;15.95;55.26
30935;BME280;51033;42.648;23.292;2023-08-08T05:06:08;93996.56;;;15.83;55.63
30935;BME280;51033;42.648;23.292;2023-08-08T05:08:33;94013.78;;;15.70;56.17
30935;BME280;51033;42.648;23.292;2023-08-08T05:10:58;94009.50;;;15.53;56.56
30935;BME280;51033;42.648;23.292;2023-08-08T05:13:24;94026.91;;;15.59;56.38
30935;BME280;51033;42.648;23.292;2023-08-08T05:15:49;94014.75;;;15.50;56.52
30935;BME280;51033;42.648;23.292;2023-08-08T05:18:14;94030.59;;;15.55;56.72
30935;BME280;51033;42.648;23.292;2023-08-08T05:20:40;94043.53;;;15.40;57.73
30935;BME280;51033;42.648;23.292;2023-08-08T05:23:05;94035.19;;;15.18;57.57
30935;BME280;51033;42.648;23.292;2023-08-08T05:25:31;94037.97;;;15.21;57.81
30935;BME280;51033;42.648;23.292;2023-08-08T05:27:57;94040.56;;;15.30;57.53
30935;BME280;51033;42.648;23.292;2023-08-08T05:30:25;94036.72;;;15.31;57.59
30935;BME280;51033;42.648;23.292;2023-08-08T05:32:50;94040.44;;;15.38;57.11
30935;BME280;51033;42.648;23.292;2023-08-08T05:35:16;94037.19;;;15.21;57.90
30935;BME280;51033;42.648;23.292;2023-08-08T05:37:41;94061.63;;;15.31;57.85
30935;BME280;51033;42.648;23.292;2023-08-08T05:40:10;94048.25;;;15.19;58.73
30935;BME280;51033;42.648;23.292;2023-08-08T05:42:37;94044.25;;;15.13;58.76
30935;BME280;51033;42.648;23.292;2023-08-08T05:45:03;94052.59;;;15.36;59.34
30935;BME280;51033;42.648;23.292;2023-08-08T05:47:28;94074.16;;;15.39;59.06
30935;BME280;51033;42.648;23.292;2023-08-08T05:49:54;94066.22;;;15.07;58.89
30935;BME280;51033;42.648;23.292;2023-08-08T05:52:20;94069.69;;;15.19;59.40
30935;BME280;51033;42.648;23.292;2023-08-08T05:54:46;94073.81;;;15.04;59.41
30935;BME280;51033;42.648;23.292;2023-08-08T05:57:11;94060.78;;;15.15;59.39
30935;BME280;51033;42.648;23.292;2023-08-08T05:59:37;94086.44;;;15.04;58.11
30935;BME280;51033;42.648;23.292;2023-08-08T06:02:03;94092.91;;;15.03;59.02
30935;BME280;51033;42.648;23.292;2023-08-08T06:04:28;94078.69;;;14.78;59.23
30935;BME280;51033;42.648;23.292;2023-08-08T06:06:53;94088.19;;;14.76;59.96
30935;BME280;51033;42.648;23.292;2023-08-08T06:09:19;94091.75;;;14.92;58.99
30935;BME280;51033;42.648;23.292;2023-08-08T06:11:44;94093.56;;;15.00;59.53
30935;BME280;51033;42.648;23.292;2023-08-08T06:14:10;94101.69;;;14.79;59.72
30935;BME280;51033;42.648;23.292;2023-08-08T06:16:35;94081.47;;;14.82;58.52
30935;BME280;51033;42.648;23.292;2023-08-08T06:19:01;94070.78;;;14.82;58.62
30935;BME280;51033;42.648;23.292;2023-08-08T06:21:26;94089.78;;;15.13;57.79
30935;BME280;51033;42.648;23.292;2023-08-08T06:23:52;94078.28;;;15.13;57.23
30935;BME280;51033;42.648;23.292;2023-08-08T06:26:21;94082.19;;;15.27;57.06
30935;BME280;51033;42.648;23.292;2023-08-08T06:28:49;94067.00;;;15.19;56.24
30935;BME280;51033;42.648;23.292;2023-08-08T06:31:16;94078.63;;;15.48;57.08
30935;BME280;51033;42.648;23.292;2023-08-08T06:33:42;94053.38;;;15.36;53.01
30935;BME280;51033;42.648;23.292;2023-08-08T06:36:08;94067.91;;;15.48;55.16
30935;BME280;51033;42.648;23.292;2023-08-08T06:38:33;94018.78;;;15.19;53.46
30935;BME280;51033;42.648;23.292;2023-08-08T06:41:00;94039.41;;;15.31;54.63
30935;BME280;51033;42.648;23.292;2023-08-08T06:43:25;94050.03;;;15.52;52.57
30935;BME280;51033;42.648;23.292;2023-08-08T06:45:51;94071.69;;;15.34;52.46
30935;BME280;51033;42.648;23.292;2023-08-08T06:48:16;94071.28;;;15.44;52.95
30935;BME280;51033;42.648;23.292;2023-08-08T06:50:42;94064.31;;;15.43;53.01
30935;BME280;51033;42.648;23.292;2023-08-08T06:53:08;94076.03;;;15.51;53.64
30935;BME280;51033;42.648;23.292;2023-08-08T06:55:33;94077.72;;;15.56;54.68
30935;BME280;51033;42.648;23.292;2023-08-08T06:57:58;94073.38;;;15.39;51.18
30935;BME280;51033;42.648;23.292;2023-08-08T07:00:24;94050.25;;;15.22;51.84
30935;BME280;51033;42.648;23.292;2023-08-08T07:02:51;94062.66;;;15.15;52.30
30935;BME280;51033;42.648;23.292;2023-08-08T07:05:16;94073.47;;;15.18;52.54
30935;BME280;51033;42.648;23.292;2023-08-08T07:07:42;94083.09;;;15.19;53.61
30935;BME280;51033;42.648;23.292;2023-08-08T07:10:09;94083.75;;;15.04;54.29
30935;BME280;51033;42.648;23.292;2023-08-08T07:12:34;94075.25;;;15.26;54.70
30935;BME280;51033;42.648;23.292;2023-08-08T07:15:00;94089.88;;;15.17;53.28
30935;BME280;51033;42.648;23.292;2023-08-08T07:17:25;94087.19;;;14.92;51.34
30935;BME280;51033;42.648;23.292;2023-08-08T07:19:50;94076.63;;;14.96;52.39
30935;BME280;51033;42.648;23.292;2023-08-08T07:22:16;94071.00;;;14.89;51.82
30935;BME280;51033;42.648;23.292;2023-08-08T07:24:41;94069.00;;;14.98;52.72
30935;BME280;51033;42.648;23.292;2023-08-08T07:27:07;94040.66;;;14.85;53.44
30935;BME280;51033;42.648;23.292;2023-08-08T07:29:32;94075.81;;;15.08;52.28
30935;BME280;51033;42.648;23.292;2023-08-08T07:31:58;94075.06;;;15.19;51.48
30935;BME280;51033;42.648;23.292;2023-08-08T07:34:24;94070.47;;;15.20;51.31
30935;BME280;51033;42.648;23.292;2023-08-08T07:36:50;94068.56;;;15.08;50.93
30935;BME280;51033;42.648;23.292;2023-08-08T07:39:15;94079.81;;;15.26;51.64
30935;BME280;51033;42.648;23.292;2023-08-08T07:41:41;94079.28;;;15.32;51.12
30935;BME280;51033;42.648;23.292;2023-08-08T07:44:06;94097.59;;;15.42;50.62
30935;BME280;51033;42.648;23.292;2023-08-08T07:46:32;94084.88;;;15.27;51.37
30935;BME280;51033;42.648;23.292;2023-08-08T07:48:57;94078.16;;;15.33;51.10
30935;BME280;51033;42.648;23.292;2023-08-08T07:51:29;94060.41;;;15.41;51.75
30935;BME280;51033;42.648;23.292;2023-08-08T07:53:54;94076.03;;;15.51;50.22
30935;BME280;51033;42.648;23.292;2023-08-08T07:56:20;94076.84;;;15.39;51.57
30935;BME280;51033;42.648;23.292;2023-08-08T07:58:45;94060.66;;;15.48;51.45
30935;BME280;51033;42.648;23.292;2023-08-08T08:01:10;94080.72;;;15.78;51.82
30935;BME280;51033;42.648;23.292;2023-08-08T08:03:37;94059.81;;;15.72;51.16
30935;BME280;51033;42.648;23.292;2023-08-08T08:06:02;94082.00;;;15.97;51.05
30935;BME280;51033;42.648;23.292;2023-08-08T08:08:28;94075.59;;;16.01;50.94
30935;BME280;51033;42.648;23.292;2023-08-08T08:10:53;94069.38;;;15.97;48.66
30935;BME280;51033;42.648;23.292;2023-08-08T08:13:18;94068.41;;;16.17;49.26
30935;BME280;51033;42.648;23.292;2023-08-08T08:15:44;94084.16;;;16.19;48.18
30935;BME280;51033;42.648;23.292;2023-08-08T08:18:10;94082.66;;;16.33;47.94
30935;BME280;51033;42.648;23.292;2023-08-08T08:20:37;94081.75;;;16.29;48.37
30935;BME280;51033;42.648;23.292;2023-08-08T08:23:03;94079.84;;;16.30;48.64
30935;BME280;51033;42.648;23.292;2023-08-08T08:25:28;94076.63;;;16.24;49.45
30935;BME280;51033;42.648;23.292;2023-08-08T08:27:54;94077.75;;;16.23;49.52
30935;BME280;51033;42.648;23.292;2023-08-08T08:30:19;94065.81;;;16.21;48.33
30935;BME280;51033;42.648;23.292;2023-08-08T08:32:45;94073.72;;;16.29;48.47
30935;BME280;51033;42.648;23.292;2023-08-08T08:35:10;94066.50;;;16.18;48.59
30935;BME280;51033;42.648;23.292;2023-08-08T08:37:38;94062.09;;;16.25;48.58
30935;BME280;51033;42.648;23.292;2023-08-08T08:40:03;94056.50;;;16.30;48.49
30935;BME280;51033;42.648;23.292;2023-08-08T08:42:31;94080.81;;;16.10;47.68
30935;BME280;51033;42.648;23.292;2023-08-08T08:44:58;94059.28;;;16.06;46.92
30935;BME280;51033;42.648;23.292;2023-08-08T08:47:24;94082.72;;;16.09;47.60
30935;BME280;51033;42.648;23.292;2023-08-08T08:49:51;94063.03;;;16.17;47.65
30935;BME280;51033;42.648;23.292;2023-08-08T08:52:20;94087.13;;;16.42;48.70
30935;BME280;51033;42.648;23.292;2023-08-08T08:54:45;94090.50;;;16.54;46.94
30935;BME280;51033;42.648;23.292;2023-08-08T08:57:11;94084.19;;;16.47;46.98
30935;BME280;51033;42.648;23.292;2023-08-08T08:59:37;94081.41;;;16.59;47.59
30935;BME280;51033;42.648;23.292;2023-08-08T09:02:03;94068.50;;;16.49;47.98
30935;BME280;51033;42.648;23.292;2023-08-08T09:04:29;94060.91;;;16.51;48.42
30935;BME280;51033;42.648;23.292;2023-08-08T09:06:55;94073.81;;;16.61;47.95
30935;BME280;51033;42.648;23.292;2023-08-08T09:09:21;94078.19;;;16.53;47.43
30935;BME280;51033;42.648;23.292;2023-08-08T09:11:49;94066.03;;;16.71;47.07
30935;BME280;51033;42.648;23.292;2023-08-08T09:14:20;94065.00;;;16.76;47.42
30935;BME280;51033;42.648;23.292;2023-08-08T09:16:47;94081.28;;;16.83;47.64
30935;BME280;51033;42.648;23.292;2023-08-08T09:19:14;94086.91;;;16.78;46.60
30935;BME280;51033;42.648;23.292;2023-08-08T09:21:40;94075.81;;;16.80;46.11
30935;BME280;51033;42.648;23.292;2023-08-08T09:24:05;94066.47;;;16.73;46.97
30935;BME280;51033;42.648;23.292;2023-08-08T09:26:32;94059.78;;;16.83;45.47
30935;BME280;51033;42.648;23.292;2023-08-08T09:28:57;94086.91;;;16.78;46.52
30935;BME280;51033;42.648;23.292;2023-08-08T09:31:26;94067.28;;;16.46;47.13
30935;BME280;51033;42.648;23.292;2023-08-08T09:33:54;94083.00;;;16.60;46.92
30935;BME280;51033;42.648;23.292;2023-08-08T09:36:19;94089.31;;;16.52;47.70
30935;BME280;51033;42.648;23.292;2023-08-08T09:38:45;94090.09;;;16.68;47.70
30935;BME280;51033;42.648;23.292;2023-08-08T09:41:11;94088.72;;;16.74;47.92
30935;BME280;51033;42.648;23.292;2023-08-08T09:43:37;94096.28;;;16.84;46.42
30935;BME280;51033;42.648;23.292;2023-08-08T09:46:02;94103.38;;;16.77;46.15
30935;BME280;51033;42.648;23.292;2023-08-08T09:48:38;94099.47;;;16.74;46.33
30935;BME280;51033;42.648;23.292;2023-08-08T09:51:06;94071.28;;;16.52;46.33
30935;BME280;51033;42.648;23.292;2023-08-08T09:53:31;94110.03;;;16.67;46.74
30935;BME280;51033;42.648;23.292;2023-08-08T09:55:57;94098.69;;;16.73;47.59
30935;BME280;51033;42.648;23.292;2023-08-08T09:58:23;94084.66;;;16.80;44.96
30935;BME280;51033;42.648;23.292;2023-08-08T10:00:50;94096.38;;;16.72;45.34
30935;BME280;51033;42.648;23.292;2023-08-08T10:03:19;94082.50;;;16.70;45.58
30935;BME280;51033;42.648;23.292;2023-08-08T10:05:45;94100.94;;;16.87;45.58
30935;BME280;51033;42.648;23.292;2023-08-08T10:08:11;94093.94;;;16.83;45.93
30935;BME280;51033;42.648;23.292;2023-08-08T10:10:37;94086.72;;;16.55;45.36
30935;BME280;51033;42.648;23.292;2023-08-08T10:13:05;94060.91;;;16.51;45.51
30935;BME280;51033;42.648;23.292;2023-08-08T10:15:30;94086.66;;;16.83;45.72
30935;BME280;51033;42.648;23.292;2023-08-08T10:17:57;94075.47;;;16.97;44.96
30935;BME280;51033;42.648;23.292;2023-08-08T10:20:24;94088.41;;;16.91;45.55
30935;BME280;51033;42.648;23.292;2023-08-08T10:22:52;94080.22;;;17.15;45.92
30935;BME280;51033;42.648;23.292;2023-08-08T10:25:25;94099.06;;;17.50;45.35
30935;BME280;51033;42.648;23.292;2023-08-08T10:28:06;94086.66;;;17.46;44.03
30935;BME280;51033;42.648;23.292;2023-08-08T10:30:48;94095.00;;;17.41;44.09
30935;BME280;51033;42.648;23.292;2023-08-08T10:33:18;94094.47;;;17.51;44.24
30935;BME280;51033;42.648;23.292;2023-08-08T10:38:22;94086.13;;;17.56;44.28
30935;BME280;51033;42.648;23.292;2023-08-08T10:40:55;94063.34;;;17.50;44.03
30935;BME280;51033;42.648;23.292;2023-08-08T10:43:28;94057.84;;;17.62;43.84
30935;BME280;51033;42.648;23.292;2023-08-08T10:46:01;94047.63;;;17.52;44.21
30935;BME280;51033;42.648;23.292;2023-08-08T10:48:30;94070.22;;;17.67;43.02
30935;BME280;51033;42.648;23.292;2023-08-08T10:50:59;94058.81;;;17.54;44.23
30935;BME280;51033;42.648;23.292;2023-08-08T10:53:26;94066.34;;;17.64;44.72
30935;BME280;51033;42.648;23.292;2023-08-08T10:56:03;94070.44;;;17.58;43.78
30935;BME280;51033;42.648;23.292;2023-08-08T10:58:46;94065.56;;;17.64;43.93
30935;BME280;51033;42.648;23.292;2023-08-08T11:01:12;94066.47;;;17.71;44.16
30935;BME280;51033;42.648;23.292;2023-08-08T11:03:40;94071.31;;;17.81;44.66
30935;BME280;51033;42.648;23.292;2023-08-08T11:06:10;94061.84;;;17.87;43.00
30935;BME280;51033;42.648;23.292;2023-08-08T11:08:37;94061.72;;;17.99;43.36
30935;BME280;51033;42.648;23.292;2023-08-08T11:11:04;94047.22;;;18.04;43.02
30935;BME280;51033;42.648;23.292;2023-08-08T11:13:29;94057.22;;;18.03;43.60
30935;BME280;51033;42.648;23.292;2023-08-08T11:15:55;94065.00;;;18.09;43.45
30935;BME280;51033;42.648;23.292;2023-08-08T11:18:21;94063.72;;;18.22;42.70
30935;BME280;51033;42.648;23.292;2023-08-08T11:20:48;94060.09;;;18.14;42.01
30935;BME280;51033;42.648;23.292;2023-08-08T11:23:13;94071.25;;;18.13;42.83
30935;BME280;51033;42.648;23.292;2023-08-08T11:25:44;94054.44;;;18.19;42.34
30935;BME280;51033;42.648;23.292;2023-08-08T11:28:10;94047.38;;;18.11;42.35
30935;BME280;51033;42.648;23.292;2023-08-08T11:30:45;94052.09;;;18.37;42.74
30935;BME280;51033;42.648;23.292;2023-08-08T11:33:14;94051.72;;;18.38;42.40
30935;BME280;51033;42.648;23.292;2023-08-08T11:35:44;94056.94;;;18.28;41.72
30935;BME280;51033;42.648;23.292;2023-08-08T11:38:12;94056.22;;;18.31;41.66
30935;BME280;51033;42.648;23.292;2023-08-08T11:40:39;94048.00;;;18.43;43.25
30935;BME280;51033;42.648;23.292;2023-08-08T11:43:05;94043.56;;;18.54;42.41
30935;BME280;51033;42.648;23.292;2023-08-08T11:45:31;94054.69;;;18.72;42.63
30935;BME280;51033;42.648;23.292;2023-08-08T11:48:01;94053.97;;;18.75;41.27
30935;BME280;51033;42.648;23.292;2023-08-08T11:50:26;94034.50;;;18.62;42.49
30935;BME280;51033;42.648;23.292;2023-08-08T11:52:54;94042.34;;;18.71;42.19
30935;BME280;51033;42.648;23.292;2023-08-08T11:55:20;94052.66;;;18.88;42.46
30935;BME280;51033;42.648;23.292;2023-08-08T11:57:47;94053.47;;;18.92;41.41
30935;BME280;51033;42.648;23.292;2023-08-08T12:00:14;94049.06;;;18.80;40.27
30935;BME280;51033;42.648;23.292;2023-08-08T12:02:42;94040.56;;;18.78;42.17
30935;BME280;51033;42.648;23.292;2023-08-08T12:05:10;93995.03;;;18.73;41.99
30935;BME280;51033;42.648;23.292;2023-08-08T12:07:42;94024.38;;;18.78;41.54
30935;BME280;51033;42.648;23.292;2023-08-08T12:10:20;94036.09;;;18.67;40.84
30935;BME280;51033;42.648;23.292;2023-08-08T12:12:47;94037.94;;;18.82;41.88
30935;BME280;51033;42.648;23.292;2023-08-08T12:15:13;94025.19;;;19.02;41.82
30935;BME280;51033;42.648;23.292;2023-08-08T12:17:39;94021.50;;;19.13;41.76
30935;BME280;51033;42.648;23.292;2023-08-08T12:20:07;94021.75;;;19.05;41.53
30935;BME280;51033;42.648;23.292;2023-08-08T12:22:33;94019.09;;;19.08;41.13
30935;BME280;51033;42.648;23.292;2023-08-08T12:25:00;94011.97;;;19.19;40.94
30935;BME280;51033;42.648;23.292;2023-08-08T12:27:25;94016.47;;;19.38;40.92
30935;BME280;51033;42.648;23.292;2023-08-08T12:29:51;94003.22;;;19.26;41.85
30935;BME280;51033;42.648;23.292;2023-08-08T12:32:19;94017.22;;;19.35;41.39
30935;BME280;51033;42.648;23.292;2023-08-08T12:34:45;93999.03;;;19.32;41.16
30935;BME280;51033;42.648;23.292;2023-08-08T12:37:10;94010.72;;;19.40;40.83
30935;BME280;51033;42.648;23.292;2023-08-08T12:39:36;94002.53;;;19.59;41.10
30935;BME280;51033;42.648;23.292;2023-08-08T12:42:01;94001.53;;;19.70;40.52
30935;BME280;51033;42.648;23.292;2023-08-08T12:44:27;94001.44;;;19.63;39.79
30935;BME280;51033;42.648;23.292;2023-08-08T12:46:52;94012.53;;;19.85;40.92
30935;BME280;51033;42.648;23.292;2023-08-08T12:49:18;94011.03;;;19.91;40.56